Hauptseite
METAR-TAF:

METAR-TAF

Flughäfen :

Brescia Ghedi, Italien

Militärflugplatz Ghedi

Breite: 45-25N, Länge: 010-17E, Höhe: 102 m

Beobachtung

Neuester Wetterbericht von vor 1 Stunde und 20 Minuten, um 21:55 UTC
Wind 8 kt aus Ost/Nordost
Temperatur 17°C
Luftfeuchtigkeit 72%
Luftdruck 1018 hPa
Sichtweite 10 km oder mehr
keine Wolken unter 1500 m und keine Kumulonimbus oder Gewitterwolken

METAR: LIPL 212155Z 06008KT CAVOK 17/12 Q1018 RMK SKC VIS MIN 9999 WIND THR31 05006KT WIND THR13 07007KT BLU

Zeit: 01:15 (23:15 UTC)

Prognose

Neuester Wetterbericht von vor 3 Stunden und 15 Minuten, um 20:00 UTC
Gültige Prognose vom 21 um 21 UTC bis 22 um 06 UTC
Wind 5 kt aus unterschiedlichen Richtungen
Sichtweite 10 km oder mehr
keine Wolken unter 1500 m und keine Kumulonimbus oder Gewitterwolken

TAF: LIPL 212000Z 2121/2206 VRB05KT CAVOK

Wetterbeobachtungen und Prognosen von mehr als 4000 Flughäfen (METAR und TAF Bericht).

Die verfügbaren Stationen werden durch gelbe und rote Markierungen auf der Karte dargestellt.

Führen Sie die Maus auf sie, um den Namen der Station zu sehen.

Darauf klicken, um die Beobachtung von Wetterbeobachtungen und Prognosen zu sehen.

Um die Karte zu ändern : klicken Sie auf den grünen Tasten mit einem schwarzen Kreuz Zum Vergrößern, auf den grünen Button mit einem Gedankenstrich zu verkleinern, oder auf die grünen Pfeile für benachbarte Karten.


METAR-TAF: